createdAt,value
2022-10-29T00:02:22.692Z,89.49
2022-10-29T00:04:55.509Z,89.48
2022-10-29T00:07:30.626Z,89.56
2022-10-29T00:10:04.283Z,89.61
2022-10-29T00:12:37.515Z,89.82
2022-10-29T00:15:12.269Z,89.98
2022-10-29T00:17:44.043Z,89.96
2022-10-29T00:20:19.234Z,89.92
2022-10-29T00:22:56.485Z,89.78
2022-10-29T00:25:29.569Z,89.57
2022-10-29T00:28:03.331Z,89.61
2022-10-29T00:30:37.443Z,89.73
2022-10-29T00:33:13.257Z,89.76
2022-10-29T00:36:00.115Z,89.68
2022-10-29T00:38:35.299Z,89.89
2022-10-29T00:41:11.409Z,89.97
2022-10-29T00:43:54.393Z,90.05
2022-10-29T00:46:34.767Z,90.12
2022-10-29T00:49:07.795Z,90.03
2022-10-29T00:51:41.134Z,90.21
2022-10-29T00:54:15.779Z,90.22
2022-10-29T00:56:55.917Z,90.18
2022-10-29T00:59:29.387Z,90.02
2022-10-29T01:02:02.492Z,89.90
2022-10-29T01:04:36.396Z,90.06
2022-10-29T01:07:09.971Z,89.90
2022-10-29T01:09:43.072Z,89.96
2022-10-29T01:12:55.932Z,90.09
2022-10-29T01:15:48.369Z,90.02
2022-10-29T01:18:38.902Z,90.03
2022-10-29T01:21:34.969Z,90.10
2022-10-29T01:24:13.083Z,90.32
2022-10-29T01:27:16.605Z,90.46
2022-10-29T01:30:06.732Z,90.59
2022-10-29T01:33:08.210Z,90.64
2022-10-29T01:36:06.410Z,90.59
2022-10-29T01:38:51.809Z,90.50
2022-10-29T01:41:29.499Z,90.51
2022-10-29T01:44:31.639Z,90.75
2022-10-29T01:47:07.262Z,90.60
2022-10-29T01:49:44.379Z,90.79
2022-10-29T01:52:20.482Z,90.80
2022-10-29T01:54:53.030Z,90.85
2022-10-29T01:57:40.575Z,90.84
2022-10-29T02:00:17.706Z,90.70
2022-10-29T02:03:16.930Z,90.39
2022-10-29T02:05:59.973Z,90.37
2022-10-29T02:09:06.706Z,90.44
2022-10-29T02:12:08.847Z,90.14
2022-10-29T02:14:58.920Z,90.13
2022-10-29T02:17:33.850Z,90.13
2022-10-29T02:20:13.058Z,90.12
2022-10-29T02:22:46.646Z,89.87
2022-10-29T02:25:19.808Z,89.86
2022-10-29T02:27:52.658Z,89.92
2022-10-29T02:30:25.597Z,90.01
2022-10-29T02:32:58.996Z,89.96
2022-10-29T02:35:32.423Z,89.93
2022-10-29T02:38:05.654Z,89.81
2022-10-29T02:40:38.710Z,89.74
2022-10-29T02:43:11.812Z,89.70
2022-10-29T02:45:45.278Z,89.63
2022-10-29T02:48:18.294Z,89.45
2022-10-29T02:50:50.948Z,89.45
2022-10-29T02:53:24.441Z,89.35
2022-10-29T02:55:57.102Z,89.30
2022-10-29T02:58:29.918Z,89.33
2022-10-29T03:01:03.269Z,89.47
2022-10-29T03:03:37.519Z,89.69
2022-10-29T03:06:19.496Z,89.98
2022-10-29T03:08:53.923Z,90.08
2022-10-29T03:11:27.087Z,90.39
2022-10-29T03:14:00.119Z,90.50
2022-10-29T03:16:33.069Z,90.92
2022-10-29T03:19:07.592Z,91.36
2022-10-29T03:21:40.623Z,91.69
2022-10-29T03:24:13.610Z,91.66
2022-10-29T03:26:46.995Z,91.87
2022-10-29T03:29:19.753Z,92.14
2022-10-29T03:31:52.586Z,92.31
2022-10-29T03:34:26.002Z,92.53
2022-10-29T03:36:58.935Z,92.71
2022-10-29T03:39:32.816Z,92.66
2022-10-29T03:42:07.329Z,92.91
2022-10-29T03:44:40.531Z,93.12
2022-10-29T03:47:13.782Z,93.33
2022-10-29T03:49:47.949Z,93.59
2022-10-29T03:52:21.556Z,93.83
2022-10-29T03:54:54.240Z,94.10
2022-10-29T03:57:27.048Z,94.10
2022-10-29T04:00:01.137Z,94.41
2022-10-29T04:02:34.480Z,94.38
2022-10-29T04:05:08.189Z,94.68
2022-10-29T04:07:40.868Z,94.88
2022-10-29T04:10:13.582Z,94.96
2022-10-29T04:12:50.131Z,95.04
2022-10-29T04:15:23.266Z,94.96
2022-10-29T04:17:56.480Z,95.26
2022-10-29T04:21:29.266Z,95.37
2022-10-29T04:24:48.672Z,95.57
2022-10-29T04:27:24.819Z,95.60
2022-10-29T04:30:49.875Z,96.07
2022-10-29T04:33:22.857Z,96.34
2022-10-29T04:35:56.947Z,96.46
2022-10-29T04:38:29.931Z,96.48
2022-10-29T04:41:03.774Z,96.78
2022-10-29T04:43:36.922Z,96.86
2022-10-29T04:46:11.947Z,97.11
2022-10-29T04:48:44.969Z,97.13
2022-10-29T04:51:26.720Z,97.45
2022-10-29T04:53:59.765Z,97.70
2022-10-29T04:56:33.437Z,97.79
2022-10-29T04:59:07.207Z,97.92
2022-10-29T05:01:40.788Z,97.99
2022-10-29T05:04:14.155Z,98.10
2022-10-29T05:06:46.812Z,98.36
2022-10-29T05:09:19.975Z,98.28
2022-10-29T05:11:53.342Z,98.39
2022-10-29T05:14:26.146Z,98.69
2022-10-29T05:16:59.594Z,98.91
2022-10-29T05:19:33.080Z,99.07
2022-10-29T05:22:06.650Z,99.29
2022-10-29T05:24:39.948Z,99.58
2022-10-29T05:27:13.785Z,99.32
2022-10-29T05:29:46.294Z,99.77
2022-10-29T05:32:19.455Z,99.76
2022-10-29T05:34:52.152Z,99.73
2022-10-29T05:37:29.488Z,99.72
2022-10-29T05:40:04.045Z,99.87
2022-10-29T05:42:43.626Z,100.00
2022-10-29T05:45:15.527Z,100.00
2022-10-29T05:47:48.336Z,100.00
2022-10-29T05:50:21.537Z,100.00
2022-10-29T05:53:00.322Z,100.00
2022-10-29T05:55:35.138Z,100.00
2022-10-29T05:58:11.600Z,100.00
2022-10-29T06:00:46.641Z,100.00
2022-10-29T06:03:22.490Z,100.00
2022-10-29T06:05:55.890Z,100.00
2022-10-29T06:08:28.841Z,100.00
2022-10-29T06:11:04.123Z,100.00
2022-10-29T06:13:37.020Z,100.00
2022-10-29T06:16:11.208Z,100.00
2022-10-29T06:18:44.443Z,100.00
2022-10-29T06:21:17.366Z,100.00
2022-10-29T06:23:54.352Z,100.00
2022-10-29T06:26:27.308Z,100.00
2022-10-29T06:29:00.786Z,100.00
2022-10-29T06:31:33.814Z,100.00
2022-10-29T06:34:06.849Z,100.00
2022-10-29T06:36:40.827Z,100.00
2022-10-29T06:39:14.953Z,100.00
2022-10-29T06:41:51.147Z,100.00
2022-10-29T06:44:24.459Z,100.00
2022-10-29T06:46:57.826Z,100.00
2022-10-29T06:49:30.719Z,100.00
2022-10-29T06:52:03.915Z,100.00
2022-10-29T06:54:37.511Z,100.00
2022-10-29T06:57:10.667Z,100.00
2022-10-29T06:59:44.878Z,100.00
2022-10-29T07:02:17.525Z,100.00
2022-10-29T07:04:50.431Z,100.00
2022-10-29T07:09:58.628Z,100.00
2022-10-29T07:12:31.932Z,100.00
2022-10-29T07:15:07.625Z,100.00
2022-10-29T07:17:40.867Z,100.00
2022-10-29T07:20:13.793Z,100.00
2022-10-29T07:22:50.802Z,100.00
2022-10-29T07:25:24.136Z,100.00
2022-10-29T07:27:59.296Z,100.00
2022-10-29T07:30:32.734Z,100.00
2022-10-29T07:33:05.712Z,100.00
2022-10-29T07:35:38.724Z,100.00
2022-10-29T07:38:13.265Z,100.00
2022-10-29T07:40:48.306Z,100.00
2022-10-29T07:43:22.921Z,100.00
2022-10-29T07:45:55.967Z,100.00
2022-10-29T07:48:28.870Z,99.52
2022-10-29T07:51:04.517Z,99.08
2022-10-29T07:53:38.373Z,98.58
2022-10-29T07:56:11.285Z,98.06
2022-10-29T07:58:44.175Z,97.56
2022-10-29T08:01:19.607Z,96.75
2022-10-29T08:03:53.550Z,96.15
2022-10-29T08:06:26.861Z,94.69
2022-10-29T08:09:00.113Z,93.67
2022-10-29T08:11:36.739Z,93.11
2022-10-29T08:14:10.506Z,92.12
2022-10-29T08:16:43.931Z,91.26
2022-10-29T08:19:19.866Z,91.10
2022-10-29T08:21:54.165Z,90.03
2022-10-29T08:24:27.114Z,89.52
2022-10-29T08:27:00.286Z,89.63
2022-10-29T08:29:35.067Z,89.12
2022-10-29T08:32:08.146Z,87.83
2022-10-29T08:34:42.047Z,86.63
2022-10-29T08:37:15.020Z,86.28
2022-10-29T08:39:48.245Z,85.77
2022-10-29T08:42:56.504Z,85.51
2022-10-29T08:45:34.608Z,84.98
2022-10-29T08:48:38.268Z,84.15
2022-10-29T08:51:30.452Z,83.28
2022-10-29T08:54:25.521Z,82.84
2022-10-29T08:56:43.618Z,83.02
2022-10-29T08:59:29.311Z,82.50
2022-10-29T09:02:02.114Z,81.72
2022-10-29T09:04:37.933Z,80.74
2022-10-29T09:07:48.637Z,80.87
2022-10-29T09:10:51.218Z,80.85
2022-10-29T09:13:47.403Z,79.43
2022-10-29T09:16:41.523Z,77.85
2022-10-29T09:19:31.445Z,77.38
2022-10-29T09:22:17.805Z,77.41
2022-10-29T09:25:27.040Z,77.22
2022-10-29T09:28:10.165Z,77.24
2022-10-29T09:31:06.264Z,77.22
2022-10-29T09:33:40.532Z,77.02
2022-10-29T09:36:26.872Z,77.05
2022-10-29T09:39:15.747Z,76.68
2022-10-29T09:41:48.982Z,76.43
2022-10-29T09:44:25.557Z,76.54
2022-10-29T09:47:44.419Z,76.36
2022-10-29T09:50:37.292Z,75.50
2022-10-29T09:53:11.206Z,75.06
2022-10-29T09:55:47.342Z,75.01
2022-10-29T09:58:26.853Z,75.13
2022-10-29T10:01:00.356Z,74.68
2022-10-29T10:03:42.913Z,74.46
2022-10-29T10:06:18.187Z,74.72
2022-10-29T10:09:06.309Z,74.63
2022-10-29T10:11:43.676Z,74.72
2022-10-29T10:14:24.243Z,74.84
2022-10-29T10:17:02.570Z,74.78
2022-10-29T10:19:35.875Z,75.32
2022-10-29T10:22:19.397Z,75.00
2022-10-29T10:24:53.849Z,73.74
2022-10-29T10:27:32.243Z,72.75
2022-10-29T10:30:16.147Z,72.71
2022-10-29T10:32:49.010Z,72.66
2022-10-29T10:35:32.917Z,72.90
2022-10-29T10:38:13.660Z,72.38
2022-10-29T10:40:46.840Z,72.63
2022-10-29T10:43:22.459Z,71.76
2022-10-29T10:46:08.829Z,71.47
2022-10-29T10:48:44.597Z,71.89
2022-10-29T10:51:30.942Z,71.34
2022-10-29T10:54:26.241Z,71.37
2022-10-29T10:57:17.393Z,71.05
2022-10-29T11:00:13.362Z,70.66
2022-10-29T11:03:00.062Z,70.86
2022-10-29T11:05:43.795Z,70.28
2022-10-29T11:08:30.018Z,70.75
2022-10-29T11:11:22.427Z,71.22
2022-10-29T11:14:00.315Z,71.73
2022-10-29T11:16:47.003Z,71.27
2022-10-29T11:19:44.374Z,70.97
2022-10-29T11:22:33.176Z,70.96
2022-10-29T11:25:35.792Z,70.74
2022-10-29T11:28:34.239Z,70.68
2022-10-29T11:31:52.269Z,70.36
2022-10-29T11:34:48.907Z,70.27
2022-10-29T11:38:13.689Z,70.63
2022-10-29T11:40:58.669Z,70.82
2022-10-29T11:43:31.901Z,70.88
2022-10-29T11:46:22.854Z,70.98
2022-10-29T11:49:00.584Z,70.95
2022-10-29T11:51:43.735Z,70.65
2022-10-29T11:54:44.883Z,70.20
2022-10-29T11:57:37.706Z,69.67
2022-10-29T12:00:25.314Z,69.72
2022-10-29T12:03:26.889Z,69.59
2022-10-29T12:06:32.270Z,70.03
2022-10-29T12:09:35.181Z,70.58
2022-10-29T12:12:24.627Z,71.00
2022-10-29T12:15:04.703Z,71.09
2022-10-29T12:17:54.601Z,71.45
2022-10-29T12:20:50.618Z,71.23
2022-10-29T12:23:51.614Z,71.19
2022-10-29T12:26:48.205Z,70.84
2022-10-29T12:29:59.317Z,70.52
2022-10-29T12:33:01.309Z,71.06
2022-10-29T12:35:51.657Z,71.24
2022-10-29T12:38:44.887Z,70.99
2022-10-29T12:41:37.063Z,71.05
2022-10-29T12:44:30.221Z,71.63
2022-10-29T12:47:10.940Z,71.20
2022-10-29T12:49:57.412Z,71.26
2022-10-29T12:52:44.363Z,71.37
2022-10-29T12:55:19.035Z,71.21
2022-10-29T12:57:52.393Z,71.58
2022-10-29T13:00:34.995Z,71.96
2022-10-29T13:03:09.483Z,72.17
2022-10-29T13:05:45.997Z,72.36
2022-10-29T13:08:30.501Z,72.72
2022-10-29T13:11:05.004Z,72.97
2022-10-29T13:13:42.012Z,73.03
2022-10-29T13:16:21.957Z,73.13
2022-10-29T13:19:08.784Z,73.34
2022-10-29T13:22:02.975Z,73.53
2022-10-29T13:24:36.351Z,73.62
2022-10-29T13:27:23.447Z,73.89
2022-10-29T13:30:25.723Z,74.04
2022-10-29T13:32:59.204Z,74.40
2022-10-29T13:35:40.927Z,74.64
2022-10-29T13:38:16.468Z,74.57
2022-10-29T13:41:14.187Z,74.34
2022-10-29T13:44:10.245Z,74.29
2022-10-29T13:46:57.536Z,74.43
2022-10-29T13:49:45.018Z,74.76
2022-10-29T13:52:22.807Z,75.06
2022-10-29T13:55:09.900Z,75.36
2022-10-29T13:58:05.346Z,75.66
2022-10-29T14:00:40.198Z,75.87
2022-10-29T14:03:24.198Z,76.06
2022-10-29T14:06:17.661Z,76.22
2022-10-29T14:09:09.611Z,76.42
2022-10-29T14:11:48.575Z,76.63
2022-10-29T14:14:29.214Z,76.96
2022-10-29T14:17:14.748Z,77.19
2022-10-29T14:19:51.045Z,77.42
2022-10-29T14:22:38.780Z,77.58
2022-10-29T14:25:33.881Z,77.63
2022-10-29T14:28:23.271Z,77.77
2022-10-29T14:31:18.100Z,77.91
2022-10-29T14:34:00.264Z,77.92
2022-10-29T14:36:45.174Z,78.02
2022-10-29T14:39:32.772Z,78.24
2022-10-29T14:42:10.986Z,78.37
2022-10-29T14:44:51.064Z,78.47
2022-10-29T14:47:33.880Z,78.69
2022-10-29T14:50:16.741Z,78.77
2022-10-29T14:53:02.217Z,79.08
2022-10-29T14:55:42.400Z,79.29
2022-10-29T14:58:30.789Z,79.63
2022-10-29T15:01:16.157Z,79.81
2022-10-29T15:03:49.652Z,79.84
2022-10-29T15:06:28.788Z,80.03
2022-10-29T15:09:07.782Z,80.19
2022-10-29T15:11:44.412Z,80.47
2022-10-29T15:14:33.860Z,80.79
2022-10-29T15:17:29.172Z,80.98
2022-10-29T15:20:08.441Z,81.19
2022-10-29T15:22:42.975Z,81.38
2022-10-29T15:25:20.633Z,81.51
2022-10-29T15:27:54.815Z,81.63
2022-10-29T15:30:37.329Z,81.82
2022-10-29T15:33:17.759Z,81.96
2022-10-29T15:35:57.026Z,82.04
2022-10-29T15:38:40.342Z,82.17
2022-10-29T15:41:21.713Z,82.18
2022-10-29T15:43:58.617Z,82.27
2022-10-29T15:46:36.855Z,82.37
2022-10-29T15:49:16.408Z,82.47
2022-10-29T15:51:49.207Z,82.41
2022-10-29T15:54:22.247Z,82.36
2022-10-29T15:56:55.544Z,82.41
2022-10-29T15:59:28.864Z,82.33
2022-10-29T16:02:02.056Z,82.34
2022-10-29T16:04:36.723Z,82.32
2022-10-29T16:07:15.217Z,82.44
2022-10-29T16:09:50.790Z,82.48
2022-10-29T16:12:24.214Z,82.53
2022-10-29T16:14:57.128Z,82.60
2022-10-29T16:17:30.697Z,82.66
2022-10-29T16:20:04.230Z,82.85
2022-10-29T16:22:37.777Z,83.04
2022-10-29T16:25:24.177Z,83.23
2022-10-29T16:27:58.173Z,83.40
2022-10-29T16:30:33.329Z,83.54
2022-10-29T16:33:06.789Z,83.75
2022-10-29T16:35:40.226Z,83.96
2022-10-29T16:38:13.794Z,84.14
2022-10-29T16:40:47.505Z,84.37
2022-10-29T16:43:20.678Z,84.61
2022-10-29T16:48:27.234Z,84.98
2022-10-29T16:51:00.176Z,85.19
2022-10-29T16:53:33.620Z,85.50
2022-10-29T16:56:07.632Z,85.76
2022-10-29T16:58:40.744Z,85.93
2022-10-29T17:01:14.129Z,86.07
2022-10-29T17:03:47.283Z,86.20
2022-10-29T17:06:21.786Z,86.30
2022-10-29T17:08:55.419Z,86.45
2022-10-29T17:11:28.726Z,86.60
2022-10-29T17:14:02.292Z,86.86
2022-10-29T17:16:37.195Z,87.02
2022-10-29T17:19:10.137Z,87.20
2022-10-29T17:21:44.956Z,87.39
2022-10-29T17:24:18.480Z,87.52
2022-10-29T17:26:51.960Z,87.78
2022-10-29T17:29:25.744Z,87.89
2022-10-29T17:31:59.310Z,88.16
2022-10-29T17:34:35.996Z,88.31
2022-10-29T17:37:09.880Z,88.52
2022-10-29T17:39:43.041Z,88.67
2022-10-29T17:42:16.604Z,88.82
2022-10-29T17:44:50.140Z,89.03
2022-10-29T17:47:25.161Z,89.34
2022-10-29T17:49:59.565Z,89.47
2022-10-29T17:52:32.216Z,89.63
2022-10-29T17:55:05.972Z,89.98
2022-10-29T17:57:39.727Z,90.17
2022-10-29T18:00:14.201Z,90.50
2022-10-29T18:02:52.597Z,90.92
2022-10-29T18:05:25.775Z,91.32
2022-10-29T18:07:59.654Z,91.52
2022-10-29T18:10:35.354Z,91.80
2022-10-29T18:13:08.477Z,92.07
2022-10-29T18:15:45.265Z,92.37
2022-10-29T18:18:18.233Z,92.70
2022-10-29T18:20:51.871Z,93.15
2022-10-29T18:23:26.139Z,93.35
2022-10-29T18:26:08.883Z,93.66
2022-10-29T18:28:41.714Z,93.80
2022-10-29T18:31:15.218Z,94.20
2022-10-29T18:33:48.534Z,94.29
2022-10-29T18:36:22.650Z,94.61
2022-10-29T18:38:59.613Z,94.92
2022-10-29T18:41:33.420Z,95.15
2022-10-29T18:44:06.759Z,95.27
2022-10-29T18:46:40.802Z,95.55
2022-10-29T18:49:14.049Z,95.87
2022-10-29T18:51:47.217Z,96.08
2022-10-29T18:54:20.455Z,96.24
2022-10-29T18:56:53.703Z,96.60
2022-10-29T18:59:26.554Z,96.72
2022-10-29T19:02:00.860Z,97.09
2022-10-29T19:04:35.441Z,97.28
2022-10-29T19:07:08.628Z,97.41
2022-10-29T19:09:42.266Z,97.55
2022-10-29T19:12:16.719Z,97.71
2022-10-29T19:14:50.087Z,97.80
2022-10-29T19:17:23.288Z,98.12
2022-10-29T19:19:56.606Z,98.29
2022-10-29T19:22:32.521Z,98.44
2022-10-29T19:25:06.241Z,98.67
2022-10-29T19:27:39.558Z,98.78
2022-10-29T19:30:13.432Z,98.91
2022-10-29T19:32:46.479Z,99.09
2022-10-29T19:35:19.376Z,99.15
2022-10-29T19:37:54.046Z,99.39
2022-10-29T19:40:27.072Z,99.54
2022-10-29T19:42:59.976Z,99.64
2022-10-29T19:45:33.195Z,99.82
2022-10-29T19:48:09.155Z,99.80
2022-10-29T19:50:42.174Z,99.83
2022-10-29T19:53:15.782Z,99.99
2022-10-29T19:55:52.005Z,100.00
2022-10-29T19:58:28.426Z,100.00
2022-10-29T20:01:07.292Z,100.00
2022-10-29T20:03:41.287Z,100.00
2022-10-29T20:06:15.399Z,100.00
2022-10-29T20:08:48.814Z,100.00
2022-10-29T20:11:21.955Z,100.00
2022-10-29T20:13:55.441Z,100.00
2022-10-29T20:16:28.322Z,100.00
2022-10-29T20:19:01.981Z,100.00
2022-10-29T20:21:34.851Z,100.00
2022-10-29T20:24:08.645Z,100.00
2022-10-29T20:26:41.907Z,100.00
2022-10-29T20:29:16.059Z,100.00
2022-10-29T20:31:49.436Z,100.00
2022-10-29T20:34:22.950Z,100.00
2022-10-29T20:36:56.204Z,100.00
2022-10-29T20:39:33.260Z,100.00
2022-10-29T20:42:05.040Z,100.00
2022-10-29T20:44:38.863Z,100.00
2022-10-29T20:47:11.889Z,100.00
2022-10-29T20:49:45.848Z,100.00
2022-10-29T20:52:18.813Z,100.00
2022-10-29T20:54:52.017Z,100.00
2022-10-29T20:57:27.165Z,100.00
2022-10-29T21:00:00.096Z,100.00
2022-10-29T21:02:33.528Z,100.00
2022-10-29T21:05:06.970Z,100.00
2022-10-29T21:07:41.739Z,100.00
2022-10-29T21:10:14.467Z,100.00
2022-10-29T21:12:47.689Z,100.00
2022-10-29T21:15:20.784Z,100.00
2022-10-29T21:17:53.557Z,100.00
2022-10-29T21:20:26.561Z,100.00
2022-10-29T21:22:59.989Z,100.00
2022-10-29T21:25:33.475Z,100.00
2022-10-29T21:28:06.936Z,100.00
2022-10-29T21:30:40.592Z,100.00
2022-10-29T21:33:13.682Z,100.00
2022-10-29T21:35:52.360Z,100.00
2022-10-29T21:38:26.965Z,100.00
2022-10-29T21:41:02.634Z,100.00
2022-10-29T21:43:35.650Z,100.00
2022-10-29T21:46:09.629Z,100.00
2022-10-29T21:48:43.815Z,100.00
2022-10-29T21:51:17.610Z,100.00
2022-10-29T21:53:50.678Z,100.00
2022-10-29T21:56:23.562Z,100.00
2022-10-29T21:58:57.261Z,100.00
2022-10-29T22:01:31.104Z,100.00
2022-10-29T22:04:04.312Z,100.00
2022-10-29T22:06:37.870Z,100.00
2022-10-29T22:09:12.035Z,100.00
2022-10-29T22:11:45.658Z,100.00
2022-10-29T22:14:19.123Z,100.00
2022-10-29T22:16:52.104Z,100.00
2022-10-29T22:19:25.757Z,100.00
2022-10-29T22:22:00.382Z,100.00
2022-10-29T22:24:33.338Z,99.90
2022-10-29T22:27:07.072Z,99.69
2022-10-29T22:29:40.495Z,99.45
2022-10-29T22:32:13.977Z,99.27
2022-10-29T22:34:48.054Z,99.07
2022-10-29T22:37:20.980Z,98.98
2022-10-29T22:39:53.746Z,98.76
2022-10-29T22:42:26.761Z,98.60
2022-10-29T22:45:00.530Z,98.55
2022-10-29T22:47:34.030Z,98.35
2022-10-29T22:50:08.824Z,98.37
2022-10-29T22:52:41.560Z,98.54
2022-10-29T22:55:16.084Z,98.50
2022-10-29T22:57:49.181Z,98.64
2022-10-29T23:00:22.373Z,98.75
2022-10-29T23:02:56.135Z,98.78
2022-10-29T23:05:29.478Z,98.89
2022-10-29T23:08:02.463Z,99.08
2022-10-29T23:10:37.541Z,99.23
2022-10-29T23:13:10.022Z,99.46
2022-10-29T23:15:49.816Z,99.68
2022-10-29T23:18:22.836Z,99.87
2022-10-29T23:21:04.655Z,100.00
2022-10-29T23:23:38.219Z,100.00
2022-10-29T23:26:12.036Z,100.00
2022-10-29T23:28:45.572Z,100.00
2022-10-29T23:31:26.955Z,100.00
2022-10-29T23:34:00.247Z,100.00
2022-10-29T23:36:34.585Z,100.00
2022-10-29T23:39:07.458Z,100.00
2022-10-29T23:41:40.226Z,100.00
2022-10-29T23:44:13.203Z,100.00
2022-10-29T23:46:46.475Z,100.00
2022-10-29T23:49:19.336Z,100.00
2022-10-29T23:51:52.745Z,100.00
2022-10-29T23:54:25.837Z,100.00
2022-10-29T23:56:58.589Z,100.00
2022-10-29T23:59:31.639Z,100.00
